sensor_id;sensor_type;location;lat;lon;timestamp;temperature;humidity
2767;DHT22;1391;46.74287300;11.63683300;2023-03-14T00:02:32;7.90;65.80
2767;DHT22;1391;46.74287300;11.63683300;2023-03-14T00:05:20;7.90;65.80
2767;DHT22;1391;46.74287300;11.63683300;2023-03-14T00:08:03;7.80;65.50
2767;DHT22;1391;46.74287300;11.63683300;2023-03-14T00:10:37;8.00;65.00
2767;DHT22;1391;46.74287300;11.63683300;2023-03-14T00:13:13;8.00;64.90
2767;DHT22;1391;46.74287300;11.63683300;2023-03-14T00:15:56;8.00;64.50
2767;DHT22;1391;46.74287300;11.63683300;2023-03-14T00:18:33;8.00;64.30
2767;DHT22;1391;46.74287300;11.63683300;2023-03-14T00:21:16;8.00;64.40
2767;DHT22;1391;46.74287300;11.63683300;2023-03-14T00:23:43;8.10;66.20
2767;DHT22;1391;46.74287300;11.63683300;2023-03-14T00:26:12;7.90;67.00
2767;DHT22;1391;46.74287300;11.63683300;2023-03-14T00:28:45;8.00;66.70
2767;DHT22;1391;46.74287300;11.63683300;2023-03-14T00:31:15;7.80;66.60
2767;DHT22;1391;46.74287300;11.63683300;2023-03-14T00:33:55;7.90;66.80
2767;DHT22;1391;46.74287300;11.63683300;2023-03-14T00:36:27;7.80;66.90
2767;DHT22;1391;46.74287300;11.63683300;2023-03-14T00:38:57;7.80;68.00
2767;DHT22;1391;46.74287300;11.63683300;2023-03-14T00:41:25;7.60;69.70
2767;DHT22;1391;46.74287300;11.63683300;2023-03-14T00:43:54;7.40;71.00
2767;DHT22;1391;46.74287300;11.63683300;2023-03-14T00:46:22;7.60;71.50
2767;DHT22;1391;46.74287300;11.63683300;2023-03-14T00:48:50;7.40;72.30
2767;DHT22;1391;46.74287300;11.63683300;2023-03-14T00:51:17;7.60;75.40
2767;DHT22;1391;46.74287300;11.63683300;2023-03-14T00:53:45;7.50;80.60
2767;DHT22;1391;46.74287300;11.63683300;2023-03-14T00:56:12;7.60;83.60
2767;DHT22;1391;46.74287300;11.63683300;2023-03-14T00:58:40;7.10;85.30
2767;DHT22;1391;46.74287300;11.63683300;2023-03-14T01:01:12;7.20;88.30
2767;DHT22;1391;46.74287300;11.63683300;2023-03-14T01:03:41;7.30;91.70
2767;DHT22;1391;46.74287300;11.63683300;2023-03-14T01:06:10;7.30;94.10
2767;DHT22;1391;46.74287300;11.63683300;2023-03-14T01:08:39;7.20;95.70
2767;DHT22;1391;46.74287300;11.63683300;2023-03-14T01:11:08;7.20;99.60
2767;DHT22;1391;46.74287300;11.63683300;2023-03-14T01:13:36;6.90;99.90
2767;DHT22;1391;46.74287300;11.63683300;2023-03-14T01:16:05;7.20;99.90
2767;DHT22;1391;46.74287300;11.63683300;2023-03-14T01:18:37;7.00;99.90
2767;DHT22;1391;46.74287300;11.63683300;2023-03-14T01:21:10;7.20;99.90
2767;DHT22;1391;46.74287300;11.63683300;2023-03-14T01:23:39;7.10;99.90
2767;DHT22;1391;46.74287300;11.63683300;2023-03-14T01:26:08;7.30;99.90
2767;DHT22;1391;46.74287300;11.63683300;2023-03-14T01:28:37;7.30;99.90
2767;DHT22;1391;46.74287300;11.63683300;2023-03-14T01:31:05;7.30;99.90
2767;DHT22;1391;46.74287300;11.63683300;2023-03-14T01:33:36;7.30;99.90
2767;DHT22;1391;46.74287300;11.63683300;2023-03-14T01:36:04;7.50;99.90
2767;DHT22;1391;46.74287300;11.63683300;2023-03-14T01:38:34;7.30;99.90
2767;DHT22;1391;46.74287300;11.63683300;2023-03-14T01:41:02;7.20;99.90
2767;DHT22;1391;46.74287300;11.63683300;2023-03-14T01:43:30;7.00;99.90
2767;DHT22;1391;46.74287300;11.63683300;2023-03-14T01:46:22;7.00;99.90
2767;DHT22;1391;46.74287300;11.63683300;2023-03-14T01:51:53;7.20;99.90
2767;DHT22;1391;46.74287300;11.63683300;2023-03-14T01:54:26;7.00;99.90
2767;DHT22;1391;46.74287300;11.63683300;2023-03-14T01:56:58;7.00;99.90
2767;DHT22;1391;46.74287300;11.63683300;2023-03-14T01:59:30;7.00;99.90
2767;DHT22;1391;46.74287300;11.63683300;2023-03-14T02:01:59;7.00;99.90
2767;DHT22;1391;46.74287300;11.63683300;2023-03-14T02:04:30;7.00;99.90
2767;DHT22;1391;46.74287300;11.63683300;2023-03-14T02:07:04;7.00;99.90
2767;DHT22;1391;46.74287300;11.63683300;2023-03-14T02:09:34;7.00;99.90
2767;DHT22;1391;46.74287300;11.63683300;2023-03-14T02:12:03;7.00;99.90
2767;DHT22;1391;46.74287300;11.63683300;2023-03-14T02:14:34;7.00;99.90
2767;DHT22;1391;46.74287300;11.63683300;2023-03-14T02:17:04;7.00;99.90
2767;DHT22;1391;46.74287300;11.63683300;2023-03-14T02:19:55;7.10;99.90
2767;DHT22;1391;46.74287300;11.63683300;2023-03-14T02:22:31;6.80;99.90
2767;DHT22;1391;46.74287300;11.63683300;2023-03-14T02:25:04;6.90;99.90
2767;DHT22;1391;46.74287300;11.63683300;2023-03-14T02:27:36;6.80;99.90
2767;DHT22;1391;46.74287300;11.63683300;2023-03-14T02:30:06;6.90;99.90
2767;DHT22;1391;46.74287300;11.63683300;2023-03-14T02:32:38;7.20;99.90
2767;DHT22;1391;46.74287300;11.63683300;2023-03-14T02:35:10;7.10;99.90
2767;DHT22;1391;46.74287300;11.63683300;2023-03-14T02:37:42;6.50;99.90
2767;DHT22;1391;46.74287300;11.63683300;2023-03-14T02:40:12;6.60;99.90
2767;DHT22;1391;46.74287300;11.63683300;2023-03-14T02:42:41;6.80;99.90
2767;DHT22;1391;46.74287300;11.63683300;2023-03-14T02:45:35;6.60;99.90
2767;DHT22;1391;46.74287300;11.63683300;2023-03-14T02:48:11;6.80;99.90
2767;DHT22;1391;46.74287300;11.63683300;2023-03-14T02:50:42;6.60;99.90
2767;DHT22;1391;46.74287300;11.63683300;2023-03-14T02:53:13;6.80;99.90
2767;DHT22;1391;46.74287300;11.63683300;2023-03-14T02:55:45;6.70;99.90
2767;DHT22;1391;46.74287300;11.63683300;2023-03-14T02:58:14;6.70;99.90
2767;DHT22;1391;46.74287300;11.63683300;2023-03-14T03:00:42;6.60;99.90
2767;DHT22;1391;46.74287300;11.63683300;2023-03-14T03:03:10;6.80;99.90
2767;DHT22;1391;46.74287300;11.63683300;2023-03-14T03:05:38;6.70;99.90
2767;DHT22;1391;46.74287300;11.63683300;2023-03-14T03:08:06;6.60;99.90
2767;DHT22;1391;46.74287300;11.63683300;2023-03-14T03:10:33;6.80;99.90
2767;DHT22;1391;46.74287300;11.63683300;2023-03-14T03:13:01;6.70;99.90
2767;DHT22;1391;46.74287300;11.63683300;2023-03-14T03:15:29;6.70;99.90
2767;DHT22;1391;46.74287300;11.63683300;2023-03-14T03:17:57;6.60;99.90
2767;DHT22;1391;46.74287300;11.63683300;2023-03-14T03:20:24;6.80;99.90
2767;DHT22;1391;46.74287300;11.63683300;2023-03-14T03:22:51;6.60;99.90
2767;DHT22;1391;46.74287300;11.63683300;2023-03-14T03:25:19;6.80;99.90
2767;DHT22;1391;46.74287300;11.63683300;2023-03-14T03:27:46;6.60;99.90
2767;DHT22;1391;46.74287300;11.63683300;2023-03-14T03:30:14;6.90;99.90
2767;DHT22;1391;46.74287300;11.63683300;2023-03-14T03:32:43;6.50;99.90
2767;DHT22;1391;46.74287300;11.63683300;2023-03-14T03:35:10;6.70;99.90
2767;DHT22;1391;46.74287300;11.63683300;2023-03-14T03:37:38;6.50;99.90
2767;DHT22;1391;46.74287300;11.63683300;2023-03-14T03:40:08;6.60;99.90
2767;DHT22;1391;46.74287300;11.63683300;2023-03-14T03:42:36;6.80;99.90
2767;DHT22;1391;46.74287300;11.63683300;2023-03-14T03:45:04;6.70;99.90
2767;DHT22;1391;46.74287300;11.63683300;2023-03-14T03:47:32;6.20;99.90
2767;DHT22;1391;46.74287300;11.63683300;2023-03-14T03:50:00;6.30;99.90
2767;DHT22;1391;46.74287300;11.63683300;2023-03-14T03:52:28;6.10;99.90
2767;DHT22;1391;46.74287300;11.63683300;2023-03-14T03:54:55;6.10;99.90
2767;DHT22;1391;46.74287300;11.63683300;2023-03-14T03:57:22;6.10;99.90
2767;DHT22;1391;46.74287300;11.63683300;2023-03-14T03:59:50;6.10;99.90
2767;DHT22;1391;46.74287300;11.63683300;2023-03-14T04:02:17;6.20;99.90
2767;DHT22;1391;46.74287300;11.63683300;2023-03-14T04:04:44;6.30;99.90
2767;DHT22;1391;46.74287300;11.63683300;2023-03-14T04:07:13;6.10;99.90
2767;DHT22;1391;46.74287300;11.63683300;2023-03-14T04:09:40;6.10;99.90
2767;DHT22;1391;46.74287300;11.63683300;2023-03-14T04:12:07;6.10;99.90
2767;DHT22;1391;46.74287300;11.63683300;2023-03-14T04:14:36;6.10;99.90
2767;DHT22;1391;46.74287300;11.63683300;2023-03-14T04:17:04;6.20;99.90
2767;DHT22;1391;46.74287300;11.63683300;2023-03-14T04:19:31;6.60;99.90
2767;DHT22;1391;46.74287300;11.63683300;2023-03-14T04:21:58;6.50;99.90
2767;DHT22;1391;46.74287300;11.63683300;2023-03-14T04:24:27;6.70;99.90
2767;DHT22;1391;46.74287300;11.63683300;2023-03-14T04:26:54;6.30;99.90
2767;DHT22;1391;46.74287300;11.63683300;2023-03-14T04:29:22;6.10;99.90
2767;DHT22;1391;46.74287300;11.63683300;2023-03-14T04:31:49;6.10;99.90
2767;DHT22;1391;46.74287300;11.63683300;2023-03-14T04:34:17;6.20;99.90
2767;DHT22;1391;46.74287300;11.63683300;2023-03-14T04:36:44;6.90;99.90
2767;DHT22;1391;46.74287300;11.63683300;2023-03-14T04:39:12;6.20;99.90
2767;DHT22;1391;46.74287300;11.63683300;2023-03-14T04:41:40;6.80;99.90
2767;DHT22;1391;46.74287300;11.63683300;2023-03-14T04:44:08;6.60;99.90
2767;DHT22;1391;46.74287300;11.63683300;2023-03-14T04:46:35;6.70;99.90
2767;DHT22;1391;46.74287300;11.63683300;2023-03-14T04:49:02;6.20;99.90
2767;DHT22;1391;46.74287300;11.63683300;2023-03-14T04:51:32;6.30;99.90
2767;DHT22;1391;46.74287300;11.63683300;2023-03-14T04:53:59;6.10;99.90
2767;DHT22;1391;46.74287300;11.63683300;2023-03-14T04:56:27;6.10;99.90
2767;DHT22;1391;46.74287300;11.63683300;2023-03-14T04:58:56;6.20;99.90
2767;DHT22;1391;46.74287300;11.63683300;2023-03-14T05:01:23;6.60;99.90
2767;DHT22;1391;46.74287300;11.63683300;2023-03-14T05:03:52;6.70;99.90
2767;DHT22;1391;46.74287300;11.63683300;2023-03-14T05:06:19;6.20;99.90
2767;DHT22;1391;46.74287300;11.63683300;2023-03-14T05:08:47;6.50;99.90
2767;DHT22;1391;46.74287300;11.63683300;2023-03-14T05:11:14;6.70;99.90
2767;DHT22;1391;46.74287300;11.63683300;2023-03-14T05:13:42;6.40;99.90
2767;DHT22;1391;46.74287300;11.63683300;2023-03-14T05:16:11;6.80;99.90
2767;DHT22;1391;46.74287300;11.63683300;2023-03-14T05:18:38;6.60;99.90
2767;DHT22;1391;46.74287300;11.63683300;2023-03-14T05:21:06;6.80;99.90
2767;DHT22;1391;46.74287300;11.63683300;2023-03-14T05:23:33;6.70;99.90
2767;DHT22;1391;46.74287300;11.63683300;2023-03-14T05:26:00;6.50;99.90
2767;DHT22;1391;46.74287300;11.63683300;2023-03-14T05:28:28;6.50;99.90
2767;DHT22;1391;46.74287300;11.63683300;2023-03-14T05:30:55;6.70;99.90
2767;DHT22;1391;46.74287300;11.63683300;2023-03-14T05:33:24;6.90;99.90
2767;DHT22;1391;46.74287300;11.63683300;2023-03-14T05:35:51;6.90;99.90
2767;DHT22;1391;46.74287300;11.63683300;2023-03-14T05:38:18;6.50;99.90
2767;DHT22;1391;46.74287300;11.63683300;2023-03-14T05:40:47;6.60;99.90
2767;DHT22;1391;46.74287300;11.63683300;2023-03-14T05:43:15;6.70;99.90
2767;DHT22;1391;46.74287300;11.63683300;2023-03-14T05:45:42;6.90;99.90
2767;DHT22;1391;46.74287300;11.63683300;2023-03-14T05:48:10;6.90;99.90
2767;DHT22;1391;46.74287300;11.63683300;2023-03-14T05:50:38;6.50;99.90
2767;DHT22;1391;46.74287300;11.63683300;2023-03-14T05:53:06;6.50;99.90
2767;DHT22;1391;46.74287300;11.63683300;2023-03-14T05:55:33;6.60;99.90
2767;DHT22;1391;46.74287300;11.63683300;2023-03-14T05:58:00;6.70;99.90
2767;DHT22;1391;46.74287300;11.63683300;2023-03-14T06:00:28;6.60;99.90
2767;DHT22;1391;46.74287300;11.63683300;2023-03-14T06:02:55;6.70;99.90
2767;DHT22;1391;46.74287300;11.63683300;2023-03-14T06:05:23;6.90;99.90
2767;DHT22;1391;46.74287300;11.63683300;2023-03-14T06:07:51;6.90;99.90
2767;DHT22;1391;46.74287300;11.63683300;2023-03-14T06:10:19;6.50;99.90
2767;DHT22;1391;46.74287300;11.63683300;2023-03-14T06:12:46;6.60;99.90
2767;DHT22;1391;46.74287300;11.63683300;2023-03-14T06:15:13;6.70;99.90
2767;DHT22;1391;46.74287300;11.63683300;2023-03-14T06:17:41;6.50;99.90
2767;DHT22;1391;46.74287300;11.63683300;2023-03-14T06:20:09;6.60;99.90
2767;DHT22;1391;46.74287300;11.63683300;2023-03-14T06:22:37;6.40;99.90
2767;DHT22;1391;46.74287300;11.63683300;2023-03-14T06:25:08;6.50;99.90
2767;DHT22;1391;46.74287300;11.63683300;2023-03-14T06:27:36;6.40;99.90
2767;DHT22;1391;46.74287300;11.63683300;2023-03-14T06:30:04;6.80;99.90
2767;DHT22;1391;46.74287300;11.63683300;2023-03-14T06:32:32;6.70;99.90
2767;DHT22;1391;46.74287300;11.63683300;2023-03-14T06:35:00;6.50;99.90
2767;DHT22;1391;46.74287300;11.63683300;2023-03-14T06:37:27;6.70;99.90
2767;DHT22;1391;46.74287300;11.63683300;2023-03-14T06:39:55;6.60;99.90
2767;DHT22;1391;46.74287300;11.63683300;2023-03-14T06:42:24;6.70;99.90
2767;DHT22;1391;46.74287300;11.63683300;2023-03-14T06:44:52;6.90;99.90
2767;DHT22;1391;46.74287300;11.63683300;2023-03-14T06:47:19;6.50;99.90
2767;DHT22;1391;46.74287300;11.63683300;2023-03-14T06:49:46;6.60;99.90
2767;DHT22;1391;46.74287300;11.63683300;2023-03-14T06:52:13;6.70;99.90
2767;DHT22;1391;46.74287300;11.63683300;2023-03-14T06:54:41;7.20;99.90
2767;DHT22;1391;46.74287300;11.63683300;2023-03-14T06:57:08;6.70;99.90
2767;DHT22;1391;46.74287300;11.63683300;2023-03-14T06:59:37;6.50;99.90
2767;DHT22;1391;46.74287300;11.63683300;2023-03-14T07:02:04;6.60;99.90
2767;DHT22;1391;46.74287300;11.63683300;2023-03-14T07:04:31;6.70;99.90
2767;DHT22;1391;46.74287300;11.63683300;2023-03-14T07:06:58;6.90;99.90
2767;DHT22;1391;46.74287300;11.63683300;2023-03-14T07:09:26;6.90;99.90
2767;DHT22;1391;46.74287300;11.63683300;2023-03-14T07:11:53;6.90;99.90
2767;DHT22;1391;46.74287300;11.63683300;2023-03-14T07:14:20;6.90;99.90
2767;DHT22;1391;46.74287300;11.63683300;2023-03-14T07:16:50;6.90;99.90
2767;DHT22;1391;46.74287300;11.63683300;2023-03-14T07:19:18;7.20;99.90
2767;DHT22;1391;46.74287300;11.63683300;2023-03-14T07:21:45;6.60;99.90
2767;DHT22;1391;46.74287300;11.63683300;2023-03-14T07:24:12;6.90;99.90
2767;DHT22;1391;46.74287300;11.63683300;2023-03-14T07:26:40;7.30;99.90
2767;DHT22;1391;46.74287300;11.63683300;2023-03-14T07:29:07;7.30;99.90
2767;DHT22;1391;46.74287300;11.63683300;2023-03-14T07:31:34;7.20;99.90
2767;DHT22;1391;46.74287300;11.63683300;2023-03-14T07:34:03;7.00;99.90
2767;DHT22;1391;46.74287300;11.63683300;2023-03-14T07:36:31;7.00;99.90
2767;DHT22;1391;46.74287300;11.63683300;2023-03-14T07:38:58;7.20;99.90
2767;DHT22;1391;46.74287300;11.63683300;2023-03-14T07:41:26;7.00;99.90
2767;DHT22;1391;46.74287300;11.63683300;2023-03-14T07:43:53;7.00;99.90
2767;DHT22;1391;46.74287300;11.63683300;2023-03-14T07:46:20;6.90;99.90
2767;DHT22;1391;46.74287300;11.63683300;2023-03-14T07:48:49;7.20;99.90
2767;DHT22;1391;46.74287300;11.63683300;2023-03-14T07:51:17;6.90;99.90
2767;DHT22;1391;46.74287300;11.63683300;2023-03-14T07:53:45;7.10;99.90
2767;DHT22;1391;46.74287300;11.63683300;2023-03-14T07:56:12;7.20;99.90
2767;DHT22;1391;46.74287300;11.63683300;2023-03-14T07:58:39;6.90;99.90
2767;DHT22;1391;46.74287300;11.63683300;2023-03-14T08:01:07;7.20;99.90
2767;DHT22;1391;46.74287300;11.63683300;2023-03-14T08:03:34;7.00;99.90
2767;DHT22;1391;46.74287300;11.63683300;2023-03-14T08:06:01;7.40;99.90
2767;DHT22;1391;46.74287300;11.63683300;2023-03-14T08:08:30;7.30;99.90
2767;DHT22;1391;46.74287300;11.63683300;2023-03-14T08:11:02;7.30;99.90
2767;DHT22;1391;46.74287300;11.63683300;2023-03-14T08:13:30;7.30;99.90
2767;DHT22;1391;46.74287300;11.63683300;2023-03-14T08:15:58;7.30;99.90
2767;DHT22;1391;46.74287300;11.63683300;2023-03-14T08:18:25;7.30;99.90
2767;DHT22;1391;46.74287300;11.63683300;2023-03-14T08:20:53;7.30;99.90
2767;DHT22;1391;46.74287300;11.63683300;2023-03-14T08:23:20;7.30;99.90
2767;DHT22;1391;46.74287300;11.63683300;2023-03-14T08:25:50;7.30;99.90
2767;DHT22;1391;46.74287300;11.63683300;2023-03-14T08:28:18;7.30;99.90
2767;DHT22;1391;46.74287300;11.63683300;2023-03-14T08:30:45;7.30;99.90
2767;DHT22;1391;46.74287300;11.63683300;2023-03-14T08:33:12;7.30;99.90
2767;DHT22;1391;46.74287300;11.63683300;2023-03-14T08:35:40;7.20;99.90
2767;DHT22;1391;46.74287300;11.63683300;2023-03-14T08:38:08;7.00;99.90
2767;DHT22;1391;46.74287300;11.63683300;2023-03-14T08:40:35;6.90;99.90
2767;DHT22;1391;46.74287300;11.63683300;2023-03-14T08:43:04;7.50;99.90
2767;DHT22;1391;46.74287300;11.63683300;2023-03-14T08:45:31;7.50;99.90
2767;DHT22;1391;46.74287300;11.63683300;2023-03-14T08:47:58;7.30;99.90
2767;DHT22;1391;46.74287300;11.63683300;2023-03-14T08:50:26;7.30;99.90
2767;DHT22;1391;46.74287300;11.63683300;2023-03-14T08:52:53;7.30;99.90
2767;DHT22;1391;46.74287300;11.63683300;2023-03-14T08:55:20;7.30;99.90
2767;DHT22;1391;46.74287300;11.63683300;2023-03-14T08:57:47;7.30;99.90
2767;DHT22;1391;46.74287300;11.63683300;2023-03-14T09:00:17;7.30;99.90
2767;DHT22;1391;46.74287300;11.63683300;2023-03-14T09:02:45;7.50;99.90
2767;DHT22;1391;46.74287300;11.63683300;2023-03-14T09:05:13;7.40;99.90
2767;DHT22;1391;46.74287300;11.63683300;2023-03-14T09:07:40;7.50;99.90
2767;DHT22;1391;46.74287300;11.63683300;2023-03-14T09:10:09;7.50;99.90
2767;DHT22;1391;46.74287300;11.63683300;2023-03-14T09:12:37;7.50;99.90
2767;DHT22;1391;46.74287300;11.63683300;2023-03-14T09:15:05;7.40;99.90
2767;DHT22;1391;46.74287300;11.63683300;2023-03-14T09:17:35;7.50;99.90
2767;DHT22;1391;46.74287300;11.63683300;2023-03-14T09:20:02;7.60;99.90
2767;DHT22;1391;46.74287300;11.63683300;2023-03-14T09:22:33;7.50;99.90
2767;DHT22;1391;46.74287300;11.63683300;2023-03-14T09:25:01;7.50;99.90
2767;DHT22;1391;46.74287300;11.63683300;2023-03-14T09:27:29;7.50;99.90
2767;DHT22;1391;46.74287300;11.63683300;2023-03-14T09:29:56;7.60;99.90
2767;DHT22;1391;46.74287300;11.63683300;2023-03-14T09:32:24;7.60;99.90
2767;DHT22;1391;46.74287300;11.63683300;2023-03-14T09:34:52;7.60;99.90
2767;DHT22;1391;46.74287300;11.63683300;2023-03-14T09:37:20;7.60;99.90
2767;DHT22;1391;46.74287300;11.63683300;2023-03-14T09:39:47;7.60;99.90
2767;DHT22;1391;46.74287300;11.63683300;2023-03-14T09:42:17;7.60;99.90
2767;DHT22;1391;46.74287300;11.63683300;2023-03-14T09:44:53;7.40;99.90
2767;DHT22;1391;46.74287300;11.63683300;2023-03-14T09:47:23;7.80;99.90
2767;DHT22;1391;46.74287300;11.63683300;2023-03-14T09:49:52;7.50;99.90
2767;DHT22;1391;46.74287300;11.63683300;2023-03-14T09:52:23;7.50;99.90
2767;DHT22;1391;46.74287300;11.63683300;2023-03-14T09:54:55;7.60;99.90
2767;DHT22;1391;46.74287300;11.63683300;2023-03-14T09:57:26;7.50;99.90
2767;DHT22;1391;46.74287300;11.63683300;2023-03-14T09:59:56;7.40;99.90
2767;DHT22;1391;46.74287300;11.63683300;2023-03-14T10:02:34;7.70;99.90
2767;DHT22;1391;46.74287300;11.63683300;2023-03-14T10:05:07;7.90;99.90
2767;DHT22;1391;46.74287300;11.63683300;2023-03-14T10:07:40;7.90;99.90
2767;DHT22;1391;46.74287300;11.63683300;2023-03-14T10:10:11;7.90;99.90
2767;DHT22;1391;46.74287300;11.63683300;2023-03-14T10:12:45;7.90;99.90
2767;DHT22;1391;46.74287300;11.63683300;2023-03-14T10:15:24;7.70;99.90
2767;DHT22;1391;46.74287300;11.63683300;2023-03-14T10:17:53;7.70;99.90
2767;DHT22;1391;46.74287300;11.63683300;2023-03-14T10:20:41;7.70;99.90
2767;DHT22;1391;46.74287300;11.63683300;2023-03-14T10:23:24;7.90;99.90
2767;DHT22;1391;46.74287300;11.63683300;2023-03-14T10:26:00;8.00;99.90
2767;DHT22;1391;46.74287300;11.63683300;2023-03-14T10:28:34;7.90;99.90
2767;DHT22;1391;46.74287300;11.63683300;2023-03-14T10:31:06;8.00;99.90
2767;DHT22;1391;46.74287300;11.63683300;2023-03-14T10:33:35;7.80;99.90
2767;DHT22;1391;46.74287300;11.63683300;2023-03-14T10:36:15;8.00;99.90
2767;DHT22;1391;46.74287300;11.63683300;2023-03-14T10:38:45;8.10;99.90
2767;DHT22;1391;46.74287300;11.63683300;2023-03-14T10:41:17;8.00;99.90
2767;DHT22;1391;46.74287300;11.63683300;2023-03-14T10:43:50;8.00;99.90
2767;DHT22;1391;46.74287300;11.63683300;2023-03-14T10:46:19;8.10;99.90
2767;DHT22;1391;46.74287300;11.63683300;2023-03-14T10:48:47;7.90;99.90
2767;DHT22;1391;46.74287300;11.63683300;2023-03-14T10:51:24;8.00;99.90
2767;DHT22;1391;46.74287300;11.63683300;2023-03-14T10:53:59;8.40;99.90
2767;DHT22;1391;46.74287300;11.63683300;2023-03-14T10:56:35;8.30;99.90
2767;DHT22;1391;46.74287300;11.63683300;2023-03-14T10:59:07;8.30;99.90
2767;DHT22;1391;46.74287300;11.63683300;2023-03-14T11:01:43;8.30;99.90
2767;DHT22;1391;46.74287300;11.63683300;2023-03-14T11:04:24;7.90;99.90
2767;DHT22;1391;46.74287300;11.63683300;2023-03-14T11:07:04;8.00;99.90
2767;DHT22;1391;46.74287300;11.63683300;2023-03-14T11:09:38;8.40;99.90
2767;DHT22;1391;46.74287300;11.63683300;2023-03-14T11:12:22;8.30;99.90
2767;DHT22;1391;46.74287300;11.63683300;2023-03-14T11:15:08;8.20;99.90
2767;DHT22;1391;46.74287300;11.63683300;2023-03-14T11:17:46;8.00;99.90
2767;DHT22;1391;46.74287300;11.63683300;2023-03-14T11:20:31;8.40;99.90
2767;DHT22;1391;46.74287300;11.63683300;2023-03-14T11:23:09;8.30;99.90
2767;DHT22;1391;46.74287300;11.63683300;2023-03-14T11:25:45;8.20;99.90
2767;DHT22;1391;46.74287300;11.63683300;2023-03-14T11:28:20;8.40;99.90
2767;DHT22;1391;46.74287300;11.63683300;2023-03-14T11:30:52;8.30;99.90
2767;DHT22;1391;46.74287300;11.63683300;2023-03-14T11:33:23;8.40;99.90
2767;DHT22;1391;46.74287300;11.63683300;2023-03-14T11:35:58;8.30;99.90
2767;DHT22;1391;46.74287300;11.63683300;2023-03-14T11:38:36;8.50;99.90
2767;DHT22;1391;46.74287300;11.63683300;2023-03-14T11:41:12;8.50;99.90
2767;DHT22;1391;46.74287300;11.63683300;2023-03-14T11:43:47;8.80;99.90
2767;DHT22;1391;46.74287300;11.63683300;2023-03-14T11:46:19;8.80;99.90
2767;DHT22;1391;46.74287300;11.63683300;2023-03-14T11:49:01;8.80;99.90
2767;DHT22;1391;46.74287300;11.63683300;2023-03-14T11:51:33;8.70;99.90
2767;DHT22;1391;46.74287300;11.63683300;2023-03-14T11:54:12;8.70;99.90
2767;DHT22;1391;46.74287300;11.63683300;2023-03-14T11:56:47;8.60;99.90
2767;DHT22;1391;46.74287300;11.63683300;2023-03-14T11:59:21;8.80;99.90
2767;DHT22;1391;46.74287300;11.63683300;2023-03-14T12:01:54;9.10;99.90
2767;DHT22;1391;46.74287300;11.63683300;2023-03-14T12:04:43;9.30;99.90
2767;DHT22;1391;46.74287300;11.63683300;2023-03-14T12:07:21;9.20;99.90
2767;DHT22;1391;46.74287300;11.63683300;2023-03-14T12:09:53;9.00;99.90
2767;DHT22;1391;46.74287300;11.63683300;2023-03-14T12:12:23;8.80;99.90
2767;DHT22;1391;46.74287300;11.63683300;2023-03-14T12:14:54;8.80;99.90
2767;DHT22;1391;46.74287300;11.63683300;2023-03-14T12:17:25;8.90;99.90
2767;DHT22;1391;46.74287300;11.63683300;2023-03-14T12:20:03;9.10;99.90
2767;DHT22;1391;46.74287300;11.63683300;2023-03-14T12:22:35;9.30;99.90
2767;DHT22;1391;46.74287300;11.63683300;2023-03-14T12:25:13;8.90;99.90
2767;DHT22;1391;46.74287300;11.63683300;2023-03-14T12:27:48;9.40;99.90
2767;DHT22;1391;46.74287300;11.63683300;2023-03-14T12:30:41;9.40;99.90
2767;DHT22;1391;46.74287300;11.63683300;2023-03-14T12:33:27;9.80;99.90
2767;DHT22;1391;46.74287300;11.63683300;2023-03-14T12:35:59;9.50;99.90
2767;DHT22;1391;46.74287300;11.63683300;2023-03-14T12:38:37;9.40;99.90
2767;DHT22;1391;46.74287300;11.63683300;2023-03-14T12:41:26;9.70;99.90
2767;DHT22;1391;46.74287300;11.63683300;2023-03-14T12:43:55;9.70;99.90
2767;DHT22;1391;46.74287300;11.63683300;2023-03-14T12:46:24;10.10;99.90
2767;DHT22;1391;46.74287300;11.63683300;2023-03-14T12:49:04;10.30;99.90
2767;DHT22;1391;46.74287300;11.63683300;2023-03-14T12:51:35;10.10;99.90
2767;DHT22;1391;46.74287300;11.63683300;2023-03-14T12:54:24;10.50;99.90
2767;DHT22;1391;46.74287300;11.63683300;2023-03-14T12:57:15;9.70;99.90
2767;DHT22;1391;46.74287300;11.63683300;2023-03-14T12:59:52;10.10;99.90
2767;DHT22;1391;46.74287300;11.63683300;2023-03-14T13:02:26;10.40;99.90
2767;DHT22;1391;46.74287300;11.63683300;2023-03-14T13:05:03;10.30;99.90
2767;DHT22;1391;46.74287300;11.63683300;2023-03-14T13:07:34;10.10;99.90
2767;DHT22;1391;46.74287300;11.63683300;2023-03-14T13:12:51;10.40;99.90
2767;DHT22;1391;46.74287300;11.63683300;2023-03-14T13:15:23;10.70;99.90
2767;DHT22;1391;46.74287300;11.63683300;2023-03-14T13:17:56;10.40;99.90
2767;DHT22;1391;46.74287300;11.63683300;2023-03-14T13:20:32;10.80;99.90
2767;DHT22;1391;46.74287300;11.63683300;2023-03-14T13:23:02;10.90;99.90
2767;DHT22;1391;46.74287300;11.63683300;2023-03-14T13:25:32;11.20;99.90
2767;DHT22;1391;46.74287300;11.63683300;2023-03-14T13:28:03;11.30;99.90
2767;DHT22;1391;46.74287300;11.63683300;2023-03-14T13:30:39;11.20;95.20
2767;DHT22;1391;46.74287300;11.63683300;2023-03-14T13:33:11;11.20;98.10
2767;DHT22;1391;46.74287300;11.63683300;2023-03-14T13:35:41;11.60;93.90
2767;DHT22;1391;46.74287300;11.63683300;2023-03-14T13:38:20;11.50;92.70
2767;DHT22;1391;46.74287300;11.63683300;2023-03-14T13:40:51;11.70;87.60
2767;DHT22;1391;46.74287300;11.63683300;2023-03-14T13:43:28;11.70;88.80
2767;DHT22;1391;46.74287300;11.63683300;2023-03-14T13:46:03;11.70;91.10
2767;DHT22;1391;46.74287300;11.63683300;2023-03-14T13:48:32;11.80;91.00
2767;DHT22;1391;46.74287300;11.63683300;2023-03-14T13:51:04;12.10;90.00
2767;DHT22;1391;46.74287300;11.63683300;2023-03-14T13:53:33;11.90;87.80
2767;DHT22;1391;46.74287300;11.63683300;2023-03-14T13:56:10;12.20;91.40
2767;DHT22;1391;46.74287300;11.63683300;2023-03-14T13:58:40;12.20;84.80
2767;DHT22;1391;46.74287300;11.63683300;2023-03-14T14:01:13;12.20;90.00
2767;DHT22;1391;46.74287300;11.63683300;2023-03-14T14:03:44;12.10;83.80
2767;DHT22;1391;46.74287300;11.63683300;2023-03-14T14:06:23;11.80;82.40
2767;DHT22;1391;46.74287300;11.63683300;2023-03-14T14:08:57;11.80;83.30
2767;DHT22;1391;46.74287300;11.63683300;2023-03-14T14:11:37;11.70;82.10